sensor_id;sensor_type;location;lat;lon;timestamp;P1;durP1;ratioP1;P2;durP2;ratioP2
16403;SDS011;8311;50.158;8.642;2023-07-31T00:02:40;5.40;;;2.08;;
16403;SDS011;8311;50.158;8.642;2023-07-31T00:05:34;5.25;;;2.15;;
16403;SDS011;8311;50.158;8.642;2023-07-31T00:08:27;3.33;;;1.35;;
16403;SDS011;8311;50.158;8.642;2023-07-31T00:11:20;5.75;;;1.85;;
16403;SDS011;8311;50.158;8.642;2023-07-31T00:14:13;5.95;;;2.00;;
16403;SDS011;8311;50.158;8.642;2023-07-31T00:17:07;4.88;;;1.88;;
16403;SDS011;8311;50.158;8.642;2023-07-31T00:20:01;4.35;;;2.00;;
16403;SDS011;8311;50.158;8.642;2023-07-31T00:22:54;4.97;;;1.80;;
16403;SDS011;8311;50.158;8.642;2023-07-31T00:25:47;8.48;;;2.45;;
16403;SDS011;8311;50.158;8.642;2023-07-31T00:28:40;4.57;;;2.03;;
16403;SDS011;8311;50.158;8.642;2023-07-31T00:31:34;3.67;;;1.80;;
16403;SDS011;8311;50.158;8.642;2023-07-31T00:34:28;5.25;;;1.70;;
16403;SDS011;8311;50.158;8.642;2023-07-31T00:37:22;6.68;;;2.40;;
16403;SDS011;8311;50.158;8.642;2023-07-31T00:40:15;3.90;;;1.70;;
16403;SDS011;8311;50.158;8.642;2023-07-31T00:43:08;4.85;;;1.75;;
16403;SDS011;8311;50.158;8.642;2023-07-31T00:46:01;6.03;;;2.03;;
16403;SDS011;8311;50.158;8.642;2023-07-31T00:48:54;6.38;;;1.80;;
16403;SDS011;8311;50.158;8.642;2023-07-31T00:51:48;4.38;;;2.00;;
16403;SDS011;8311;50.158;8.642;2023-07-31T00:54:41;3.72;;;1.63;;
16403;SDS011;8311;50.158;8.642;2023-07-31T00:57:35;5.80;;;1.98;;
16403;SDS011;8311;50.158;8.642;2023-07-31T01:00:30;5.88;;;2.28;;
16403;SDS011;8311;50.158;8.642;2023-07-31T01:03:23;3.63;;;1.83;;
16403;SDS011;8311;50.158;8.642;2023-07-31T01:06:18;7.82;;;1.80;;
16403;SDS011;8311;50.158;8.642;2023-07-31T01:09:21;5.10;;;1.80;;
16403;SDS011;8311;50.158;8.642;2023-07-31T01:12:21;5.03;;;1.95;;
16403;SDS011;8311;50.158;8.642;2023-07-31T01:15:17;5.93;;;2.17;;
16403;SDS011;8311;50.158;8.642;2023-07-31T01:18:11;6.07;;;1.85;;
16403;SDS011;8311;50.158;8.642;2023-07-31T01:21:06;3.40;;;1.80;;
16403;SDS011;8311;50.158;8.642;2023-07-31T01:24:19;5.32;;;1.80;;
16403;SDS011;8311;50.158;8.642;2023-07-31T01:27:17;4.93;;;2.03;;
16403;SDS011;8311;50.158;8.642;2023-07-31T01:30:16;7.93;;;1.98;;
16403;SDS011;8311;50.158;8.642;2023-07-31T01:33:15;4.07;;;1.60;;
16403;SDS011;8311;50.158;8.642;2023-07-31T01:36:09;6.70;;;2.13;;
16403;SDS011;8311;50.158;8.642;2023-07-31T01:39:03;5.68;;;1.77;;
16403;SDS011;8311;50.158;8.642;2023-07-31T01:41:56;3.92;;;1.58;;
16403;SDS011;8311;50.158;8.642;2023-07-31T01:44:50;4.88;;;1.67;;
16403;SDS011;8311;50.158;8.642;2023-07-31T01:47:44;4.97;;;1.70;;
16403;SDS011;8311;50.158;8.642;2023-07-31T01:50:37;3.78;;;1.65;;
16403;SDS011;8311;50.158;8.642;2023-07-31T01:53:30;5.22;;;2.20;;
16403;SDS011;8311;50.158;8.642;2023-07-31T01:56:24;4.80;;;1.92;;
16403;SDS011;8311;50.158;8.642;2023-07-31T01:59:17;5.90;;;1.90;;
16403;SDS011;8311;50.158;8.642;2023-07-31T02:02:11;3.75;;;1.83;;
16403;SDS011;8311;50.158;8.642;2023-07-31T02:05:05;4.72;;;1.70;;
16403;SDS011;8311;50.158;8.642;2023-07-31T02:07:58;5.47;;;2.17;;
16403;SDS011;8311;50.158;8.642;2023-07-31T02:10:53;6.70;;;2.10;;
16403;SDS011;8311;50.158;8.642;2023-07-31T02:13:46;4.95;;;2.20;;
16403;SDS011;8311;50.158;8.642;2023-07-31T02:16:39;3.38;;;1.77;;
16403;SDS011;8311;50.158;8.642;2023-07-31T02:19:35;4.63;;;2.08;;
16403;SDS011;8311;50.158;8.642;2023-07-31T02:22:29;4.43;;;2.08;;
16403;SDS011;8311;50.158;8.642;2023-07-31T02:25:22;5.68;;;2.55;;
16403;SDS011;8311;50.158;8.642;2023-07-31T02:28:15;4.00;;;2.00;;
16403;SDS011;8311;50.158;8.642;2023-07-31T02:31:09;3.47;;;2.05;;
16403;SDS011;8311;50.158;8.642;2023-07-31T02:34:02;4.93;;;1.90;;
16403;SDS011;8311;50.158;8.642;2023-07-31T02:36:57;6.95;;;2.20;;
16403;SDS011;8311;50.158;8.642;2023-07-31T02:39:50;4.53;;;1.70;;
16403;SDS011;8311;50.158;8.642;2023-07-31T02:42:43;4.53;;;2.08;;
16403;SDS011;8311;50.158;8.642;2023-07-31T02:45:36;3.55;;;2.00;;
16403;SDS011;8311;50.158;8.642;2023-07-31T02:48:29;4.93;;;2.20;;
16403;SDS011;8311;50.158;8.642;2023-07-31T02:51:22;4.22;;;1.98;;
16403;SDS011;8311;50.158;8.642;2023-07-31T02:54:17;4.07;;;2.13;;
16403;SDS011;8311;50.158;8.642;2023-07-31T02:57:12;5.30;;;2.13;;
16403;SDS011;8311;50.158;8.642;2023-07-31T03:00:06;4.68;;;1.98;;
16403;SDS011;8311;50.158;8.642;2023-07-31T03:03:00;4.82;;;2.33;;
16403;SDS011;8311;50.158;8.642;2023-07-31T03:05:53;4.60;;;2.03;;
16403;SDS011;8311;50.158;8.642;2023-07-31T03:08:46;5.70;;;2.25;;
16403;SDS011;8311;50.158;8.642;2023-07-31T03:11:40;4.78;;;2.08;;
16403;SDS011;8311;50.158;8.642;2023-07-31T03:14:33;4.35;;;2.25;;
16403;SDS011;8311;50.158;8.642;2023-07-31T03:17:26;5.95;;;2.40;;
16403;SDS011;8311;50.158;8.642;2023-07-31T03:20:19;5.63;;;1.90;;
16403;SDS011;8311;50.158;8.642;2023-07-31T03:23:12;6.63;;;2.47;;
16403;SDS011;8311;50.158;8.642;2023-07-31T03:26:07;3.30;;;1.85;;
16403;SDS011;8311;50.158;8.642;2023-07-31T03:29:02;3.53;;;1.60;;
16403;SDS011;8311;50.158;8.642;2023-07-31T03:31:55;5.03;;;2.40;;
16403;SDS011;8311;50.158;8.642;2023-07-31T03:34:49;8.82;;;2.20;;
16403;SDS011;8311;50.158;8.642;2023-07-31T03:37:42;6.20;;;2.25;;
16403;SDS011;8311;50.158;8.642;2023-07-31T03:40:35;5.38;;;2.40;;
16403;SDS011;8311;50.158;8.642;2023-07-31T03:43:28;7.30;;;2.42;;
16403;SDS011;8311;50.158;8.642;2023-07-31T03:46:22;4.25;;;1.38;;
16403;SDS011;8311;50.158;8.642;2023-07-31T03:49:17;4.30;;;2.08;;
16403;SDS011;8311;50.158;8.642;2023-07-31T03:52:10;6.53;;;2.45;;
16403;SDS011;8311;50.158;8.642;2023-07-31T03:55:04;4.30;;;1.85;;
16403;SDS011;8311;50.158;8.642;2023-07-31T03:57:59;5.20;;;2.22;;
16403;SDS011;8311;50.158;8.642;2023-07-31T04:00:52;5.50;;;2.63;;
16403;SDS011;8311;50.158;8.642;2023-07-31T04:03:46;6.32;;;2.20;;
16403;SDS011;8311;50.158;8.642;2023-07-31T04:06:40;5.57;;;2.38;;
16403;SDS011;8311;50.158;8.642;2023-07-31T04:09:33;5.18;;;2.28;;
16403;SDS011;8311;50.158;8.642;2023-07-31T04:12:26;5.28;;;2.22;;
16403;SDS011;8311;50.158;8.642;2023-07-31T04:15:19;4.97;;;2.20;;
16403;SDS011;8311;50.158;8.642;2023-07-31T04:18:12;5.72;;;2.40;;
16403;SDS011;8311;50.158;8.642;2023-07-31T04:21:06;3.95;;;1.85;;
16403;SDS011;8311;50.158;8.642;2023-07-31T04:24:01;5.05;;;2.17;;
16403;SDS011;8311;50.158;8.642;2023-07-31T04:26:54;5.88;;;2.50;;
16403;SDS011;8311;50.158;8.642;2023-07-31T04:29:48;9.15;;;2.60;;
16403;SDS011;8311;50.158;8.642;2023-07-31T04:32:42;5.65;;;2.20;;
16403;SDS011;8311;50.158;8.642;2023-07-31T04:35:35;5.70;;;2.58;;
16403;SDS011;8311;50.158;8.642;2023-07-31T04:38:30;5.65;;;2.28;;
16403;SDS011;8311;50.158;8.642;2023-07-31T04:41:23;6.75;;;2.40;;
16403;SDS011;8311;50.158;8.642;2023-07-31T04:44:17;4.32;;;1.92;;
16403;SDS011;8311;50.158;8.642;2023-07-31T04:47:10;5.82;;;2.40;;
16403;SDS011;8311;50.158;8.642;2023-07-31T04:50:04;5.95;;;2.60;;
16403;SDS011;8311;50.158;8.642;2023-07-31T04:52:57;5.47;;;2.33;;
16403;SDS011;8311;50.158;8.642;2023-07-31T04:55:52;5.07;;;2.58;;
16403;SDS011;8311;50.158;8.642;2023-07-31T04:58:45;6.00;;;2.42;;
16403;SDS011;8311;50.158;8.642;2023-07-31T05:01:38;5.68;;;2.35;;
16403;SDS011;8311;50.158;8.642;2023-07-31T05:04:32;6.95;;;2.45;;
16403;SDS011;8311;50.158;8.642;2023-07-31T05:07:25;5.72;;;2.25;;
16403;SDS011;8311;50.158;8.642;2023-07-31T05:10:18;5.25;;;2.03;;
16403;SDS011;8311;50.158;8.642;2023-07-31T05:13:13;6.35;;;2.03;;
16403;SDS011;8311;50.158;8.642;2023-07-31T05:16:06;9.20;;;2.70;;
16403;SDS011;8311;50.158;8.642;2023-07-31T05:18:59;4.78;;;2.20;;
16403;SDS011;8311;50.158;8.642;2023-07-31T05:21:52;5.00;;;2.30;;
16403;SDS011;8311;50.158;8.642;2023-07-31T05:24:45;6.65;;;2.00;;
16403;SDS011;8311;50.158;8.642;2023-07-31T05:27:38;5.40;;;2.25;;
16403;SDS011;8311;50.158;8.642;2023-07-31T05:30:33;8.18;;;2.67;;
16403;SDS011;8311;50.158;8.642;2023-07-31T05:33:26;4.65;;;2.55;;
16403;SDS011;8311;50.158;8.642;2023-07-31T05:36:21;6.82;;;2.58;;
16403;SDS011;8311;50.158;8.642;2023-07-31T05:39:14;5.07;;;2.45;;
16403;SDS011;8311;50.158;8.642;2023-07-31T05:42:07;6.05;;;2.47;;
16403;SDS011;8311;50.158;8.642;2023-07-31T05:45:00;7.22;;;2.60;;
16403;SDS011;8311;50.158;8.642;2023-07-31T05:47:55;7.03;;;2.42;;
16403;SDS011;8311;50.158;8.642;2023-07-31T05:50:48;6.78;;;2.50;;
16403;SDS011;8311;50.158;8.642;2023-07-31T05:53:41;7.13;;;2.50;;
16403;SDS011;8311;50.158;8.642;2023-07-31T05:56:35;4.60;;;1.95;;
16403;SDS011;8311;50.158;8.642;2023-07-31T05:59:29;7.07;;;2.65;;
16403;SDS011;8311;50.158;8.642;2023-07-31T06:02:24;6.82;;;2.50;;
16403;SDS011;8311;50.158;8.642;2023-07-31T06:05:20;5.20;;;2.38;;
16403;SDS011;8311;50.158;8.642;2023-07-31T06:08:13;7.32;;;2.90;;
16403;SDS011;8311;50.158;8.642;2023-07-31T06:11:06;5.40;;;2.67;;
16403;SDS011;8311;50.158;8.642;2023-07-31T06:14:00;6.13;;;2.38;;
16403;SDS011;8311;50.158;8.642;2023-07-31T06:16:53;5.88;;;2.10;;
16403;SDS011;8311;50.158;8.642;2023-07-31T06:19:46;5.95;;;3.00;;
16403;SDS011;8311;50.158;8.642;2023-07-31T06:22:41;6.80;;;2.67;;
16403;SDS011;8311;50.158;8.642;2023-07-31T06:25:34;5.88;;;2.42;;
16403;SDS011;8311;50.158;8.642;2023-07-31T06:28:27;7.20;;;2.83;;
16403;SDS011;8311;50.158;8.642;2023-07-31T06:31:21;7.22;;;2.38;;
16403;SDS011;8311;50.158;8.642;2023-07-31T06:34:14;6.45;;;2.75;;
16403;SDS011;8311;50.158;8.642;2023-07-31T06:37:07;4.22;;;2.30;;
16403;SDS011;8311;50.158;8.642;2023-07-31T06:40:03;7.47;;;2.67;;
16403;SDS011;8311;50.158;8.642;2023-07-31T06:42:59;6.35;;;2.53;;
16403;SDS011;8311;50.158;8.642;2023-07-31T06:45:57;4.38;;;2.30;;
16403;SDS011;8311;50.158;8.642;2023-07-31T06:48:53;6.88;;;2.75;;
16403;SDS011;8311;50.158;8.642;2023-07-31T06:51:46;4.57;;;2.65;;
16403;SDS011;8311;50.158;8.642;2023-07-31T06:54:39;6.30;;;2.83;;
16403;SDS011;8311;50.158;8.642;2023-07-31T06:57:34;5.10;;;2.70;;
16403;SDS011;8311;50.158;8.642;2023-07-31T07:00:28;6.05;;;2.85;;
16403;SDS011;8311;50.158;8.642;2023-07-31T07:03:21;5.15;;;2.33;;
16403;SDS011;8311;50.158;8.642;2023-07-31T07:06:14;6.35;;;2.50;;
16403;SDS011;8311;50.158;8.642;2023-07-31T07:09:07;6.93;;;2.38;;
16403;SDS011;8311;50.158;8.642;2023-07-31T07:12:00;6.35;;;2.40;;
16403;SDS011;8311;50.158;8.642;2023-07-31T07:14:55;5.75;;;2.33;;
16403;SDS011;8311;50.158;8.642;2023-07-31T07:17:48;6.90;;;2.40;;
16403;SDS011;8311;50.158;8.642;2023-07-31T07:20:45;6.18;;;2.55;;
16403;SDS011;8311;50.158;8.642;2023-07-31T07:23:39;4.63;;;2.30;;
16403;SDS011;8311;50.158;8.642;2023-07-31T07:26:32;5.30;;;2.55;;
16403;SDS011;8311;50.158;8.642;2023-07-31T07:29:25;5.93;;;2.45;;
16403;SDS011;8311;50.158;8.642;2023-07-31T07:32:20;8.32;;;2.45;;
16403;SDS011;8311;50.158;8.642;2023-07-31T07:35:13;5.10;;;2.67;;
16403;SDS011;8311;50.158;8.642;2023-07-31T07:38:06;5.13;;;2.65;;
16403;SDS011;8311;50.158;8.642;2023-07-31T07:40:59;8.88;;;3.00;;
16403;SDS011;8311;50.158;8.642;2023-07-31T07:43:53;6.10;;;2.30;;
16403;SDS011;8311;50.158;8.642;2023-07-31T07:46:45;6.22;;;3.08;;
16403;SDS011;8311;50.158;8.642;2023-07-31T07:49:40;7.38;;;2.70;;
16403;SDS011;8311;50.158;8.642;2023-07-31T07:52:35;6.10;;;2.63;;
16403;SDS011;8311;50.158;8.642;2023-07-31T07:55:29;5.45;;;2.28;;
16403;SDS011;8311;50.158;8.642;2023-07-31T07:58:22;7.07;;;2.55;;
16403;SDS011;8311;50.158;8.642;2023-07-31T08:01:15;6.55;;;2.63;;
16403;SDS011;8311;50.158;8.642;2023-07-31T08:04:09;4.88;;;2.45;;
16403;SDS011;8311;50.158;8.642;2023-07-31T08:07:04;5.95;;;2.58;;
16403;SDS011;8311;50.158;8.642;2023-07-31T08:09:57;5.45;;;2.85;;
16403;SDS011;8311;50.158;8.642;2023-07-31T08:12:51;6.35;;;2.35;;
16403;SDS011;8311;50.158;8.642;2023-07-31T08:15:43;4.70;;;2.55;;
16403;SDS011;8311;50.158;8.642;2023-07-31T08:18:36;8.77;;;3.15;;
16403;SDS011;8311;50.158;8.642;2023-07-31T08:21:31;6.72;;;2.97;;
16403;SDS011;8311;50.158;8.642;2023-07-31T08:24:26;9.57;;;3.30;;
16403;SDS011;8311;50.158;8.642;2023-07-31T08:27:19;7.15;;;2.33;;
16403;SDS011;8311;50.158;8.642;2023-07-31T08:30:13;7.43;;;2.70;;
16403;SDS011;8311;50.158;8.642;2023-07-31T08:33:06;7.32;;;2.65;;
16403;SDS011;8311;50.158;8.642;2023-07-31T08:36:01;13.82;;;2.80;;
16403;SDS011;8311;50.158;8.642;2023-07-31T08:38:53;5.43;;;2.55;;
16403;SDS011;8311;50.158;8.642;2023-07-31T08:41:48;8.65;;;2.50;;
16403;SDS011;8311;50.158;8.642;2023-07-31T08:44:41;6.18;;;2.58;;
16403;SDS011;8311;50.158;8.642;2023-07-31T08:47:36;8.27;;;3.00;;
16403;SDS011;8311;50.158;8.642;2023-07-31T08:50:30;8.40;;;2.80;;
16403;SDS011;8311;50.158;8.642;2023-07-31T08:53:23;6.60;;;2.97;;
16403;SDS011;8311;50.158;8.642;2023-07-31T08:56:17;9.88;;;3.00;;
16403;SDS011;8311;50.158;8.642;2023-07-31T08:59:13;10.15;;;2.90;;
16403;SDS011;8311;50.158;8.642;2023-07-31T09:02:09;8.13;;;2.80;;
16403;SDS011;8311;50.158;8.642;2023-07-31T09:05:03;6.97;;;3.20;;
16403;SDS011;8311;50.158;8.642;2023-07-31T09:07:59;6.93;;;2.78;;
16403;SDS011;8311;50.158;8.642;2023-07-31T09:10:54;6.72;;;2.83;;
16403;SDS011;8311;50.158;8.642;2023-07-31T09:13:52;6.82;;;2.60;;
16403;SDS011;8311;50.158;8.642;2023-07-31T09:16:55;7.28;;;3.00;;
16403;SDS011;8311;50.158;8.642;2023-07-31T09:19:50;9.73;;;3.00;;
16403;SDS011;8311;50.158;8.642;2023-07-31T09:22:44;9.07;;;2.72;;
16403;SDS011;8311;50.158;8.642;2023-07-31T09:25:38;7.78;;;2.80;;
16403;SDS011;8311;50.158;8.642;2023-07-31T09:28:31;9.45;;;2.72;;
16403;SDS011;8311;50.158;8.642;2023-07-31T09:31:38;7.55;;;2.63;;
16403;SDS011;8311;50.158;8.642;2023-07-31T09:34:38;10.10;;;2.80;;
16403;SDS011;8311;50.158;8.642;2023-07-31T09:37:31;5.45;;;2.65;;
16403;SDS011;8311;50.158;8.642;2023-07-31T09:40:25;6.45;;;2.70;;
16403;SDS011;8311;50.158;8.642;2023-07-31T09:43:18;5.78;;;2.45;;
16403;SDS011;8311;50.158;8.642;2023-07-31T09:46:13;7.97;;;3.08;;
16403;SDS011;8311;50.158;8.642;2023-07-31T09:49:07;6.82;;;2.33;;
16403;SDS011;8311;50.158;8.642;2023-07-31T09:52:03;6.38;;;2.40;;
16403;SDS011;8311;50.158;8.642;2023-07-31T09:55:05;6.57;;;2.70;;
16403;SDS011;8311;50.158;8.642;2023-07-31T09:57:58;4.75;;;2.60;;
16403;SDS011;8311;50.158;8.642;2023-07-31T10:00:55;6.95;;;2.90;;
16403;SDS011;8311;50.158;8.642;2023-07-31T10:03:50;6.43;;;2.38;;
16403;SDS011;8311;50.158;8.642;2023-07-31T10:06:44;5.32;;;2.53;;
16403;SDS011;8311;50.158;8.642;2023-07-31T10:09:43;9.98;;;2.72;;
16403;SDS011;8311;50.158;8.642;2023-07-31T10:12:38;7.38;;;2.75;;
16403;SDS011;8311;50.158;8.642;2023-07-31T10:15:31;6.65;;;2.75;;
16403;SDS011;8311;50.158;8.642;2023-07-31T10:18:26;6.10;;;2.63;;
16403;SDS011;8311;50.158;8.642;2023-07-31T10:21:19;6.60;;;2.50;;
16403;SDS011;8311;50.158;8.642;2023-07-31T10:24:13;6.82;;;3.08;;
16403;SDS011;8311;50.158;8.642;2023-07-31T10:27:09;4.95;;;2.70;;
16403;SDS011;8311;50.158;8.642;2023-07-31T10:30:03;4.65;;;2.13;;
16403;SDS011;8311;50.158;8.642;2023-07-31T10:32:58;5.45;;;2.80;;
16403;SDS011;8311;50.158;8.642;2023-07-31T10:42:29;5.97;;;2.60;;
16403;SDS011;8311;50.158;8.642;2023-07-31T10:45:24;6.22;;;2.53;;
16403;SDS011;8311;50.158;8.642;2023-07-31T10:48:22;8.15;;;2.67;;
16403;SDS011;8311;50.158;8.642;2023-07-31T10:51:16;7.85;;;2.72;;
16403;SDS011;8311;50.158;8.642;2023-07-31T10:54:14;7.63;;;3.40;;
16403;SDS011;8311;50.158;8.642;2023-07-31T10:57:18;7.50;;;2.60;;
16403;SDS011;8311;50.158;8.642;2023-07-31T11:00:21;4.97;;;2.63;;
16403;SDS011;8311;50.158;8.642;2023-07-31T11:03:17;6.45;;;2.65;;
16403;SDS011;8311;50.158;8.642;2023-07-31T11:06:12;6.60;;;2.97;;
16403;SDS011;8311;50.158;8.642;2023-07-31T11:09:10;6.43;;;2.85;;
16403;SDS011;8311;50.158;8.642;2023-07-31T11:12:06;6.82;;;2.92;;
16403;SDS011;8311;50.158;8.642;2023-07-31T11:15:02;7.80;;;3.15;;
16403;SDS011;8311;50.158;8.642;2023-07-31T11:17:57;6.15;;;2.75;;
16403;SDS011;8311;50.158;8.642;2023-07-31T11:20:54;6.70;;;3.00;;
16403;SDS011;8311;50.158;8.642;2023-07-31T11:23:47;6.70;;;2.83;;
16403;SDS011;8311;50.158;8.642;2023-07-31T11:26:47;8.25;;;3.58;;
16403;SDS011;8311;50.158;8.642;2023-07-31T11:29:41;8.38;;;3.03;;
16403;SDS011;8311;50.158;8.642;2023-07-31T11:32:35;7.72;;;2.90;;
16403;SDS011;8311;50.158;8.642;2023-07-31T11:35:30;7.00;;;3.00;;
16403;SDS011;8311;50.158;8.642;2023-07-31T11:38:24;5.78;;;3.05;;
16403;SDS011;8311;50.158;8.642;2023-07-31T11:41:18;6.63;;;3.20;;
16403;SDS011;8311;50.158;8.642;2023-07-31T11:44:11;7.60;;;3.28;;
16403;SDS011;8311;50.158;8.642;2023-07-31T11:47:17;8.18;;;2.60;;
16403;SDS011;8311;50.158;8.642;2023-07-31T11:50:14;6.65;;;3.33;;
16403;SDS011;8311;50.158;8.642;2023-07-31T11:53:09;7.47;;;2.95;;
16403;SDS011;8311;50.158;8.642;2023-07-31T11:56:04;7.53;;;2.90;;
16403;SDS011;8311;50.158;8.642;2023-07-31T11:58:59;7.85;;;2.72;;
16403;SDS011;8311;50.158;8.642;2023-07-31T12:01:57;7.45;;;3.03;;
16403;SDS011;8311;50.158;8.642;2023-07-31T12:04:50;6.43;;;2.67;;
16403;SDS011;8311;50.158;8.642;2023-07-31T12:07:47;5.95;;;2.90;;
16403;SDS011;8311;50.158;8.642;2023-07-31T12:10:43;5.85;;;2.58;;
16403;SDS011;8311;50.158;8.642;2023-07-31T12:13:37;7.28;;;2.80;;
16403;SDS011;8311;50.158;8.642;2023-07-31T12:16:30;5.43;;;2.60;;
16403;SDS011;8311;50.158;8.642;2023-07-31T12:19:23;7.28;;;3.42;;
16403;SDS011;8311;50.158;8.642;2023-07-31T12:22:20;5.80;;;3.00;;
16403;SDS011;8311;50.158;8.642;2023-07-31T12:25:15;7.38;;;3.15;;
16403;SDS011;8311;50.158;8.642;2023-07-31T12:28:10;6.75;;;2.95;;
16403;SDS011;8311;50.158;8.642;2023-07-31T12:31:07;5.55;;;2.80;;
16403;SDS011;8311;50.158;8.642;2023-07-31T12:34:01;5.82;;;2.58;;
16403;SDS011;8311;50.158;8.642;2023-07-31T12:36:55;8.27;;;3.20;;
16403;SDS011;8311;50.158;8.642;2023-07-31T12:39:48;7.15;;;3.13;;
16403;SDS011;8311;50.158;8.642;2023-07-31T12:42:41;5.70;;;2.80;;
16403;SDS011;8311;50.158;8.642;2023-07-31T12:45:36;7.03;;;2.90;;
16403;SDS011;8311;50.158;8.642;2023-07-31T12:48:29;7.63;;;3.42;;
16403;SDS011;8311;50.158;8.642;2023-07-31T12:51:24;17.90;;;4.70;;
16403;SDS011;8311;50.158;8.642;2023-07-31T12:54:17;11.70;;;3.38;;
16403;SDS011;8311;50.158;8.642;2023-07-31T12:57:11;12.18;;;4.28;;
16403;SDS011;8311;50.158;8.642;2023-07-31T13:00:05;10.18;;;3.42;;
16403;SDS011;8311;50.158;8.642;2023-07-31T13:03:01;11.80;;;3.75;;
16403;SDS011;8311;50.158;8.642;2023-07-31T13:05:56;10.13;;;3.95;;
16403;SDS011;8311;50.158;8.642;2023-07-31T13:08:50;7.40;;;3.20;;
16403;SDS011;8311;50.158;8.642;2023-07-31T13:11:44;6.50;;;3.17;;
16403;SDS011;8311;50.158;8.642;2023-07-31T13:14:38;9.10;;;3.25;;
16403;SDS011;8311;50.158;8.642;2023-07-31T13:17:32;8.77;;;2.92;;
16403;SDS011;8311;50.158;8.642;2023-07-31T13:20:27;5.18;;;2.67;;
16403;SDS011;8311;50.158;8.642;2023-07-31T13:23:20;7.70;;;3.20;;
16403;SDS011;8311;50.158;8.642;2023-07-31T13:26:14;7.70;;;3.17;;
16403;SDS011;8311;50.158;8.642;2023-07-31T13:29:08;8.63;;;3.22;;
16403;SDS011;8311;50.158;8.642;2023-07-31T13:32:02;7.22;;;3.20;;
16403;SDS011;8311;50.158;8.642;2023-07-31T13:34:56;7.13;;;2.80;;
16403;SDS011;8311;50.158;8.642;2023-07-31T13:37:50;8.10;;;2.78;;
16403;SDS011;8311;50.158;8.642;2023-07-31T13:40:43;5.72;;;2.92;;
16403;SDS011;8311;50.158;8.642;2023-07-31T13:43:37;5.63;;;2.83;;
16403;SDS011;8311;50.158;8.642;2023-07-31T13:46:30;6.82;;;3.15;;
16403;SDS011;8311;50.158;8.642;2023-07-31T13:49:24;7.13;;;2.80;;
16403;SDS011;8311;50.158;8.642;2023-07-31T13:52:16;5.22;;;2.50;;
16403;SDS011;8311;50.158;8.642;2023-07-31T13:55:11;5.57;;;2.60;;
16403;SDS011;8311;50.158;8.642;2023-07-31T13:58:05;5.28;;;3.05;;
16403;SDS011;8311;50.158;8.642;2023-07-31T14:00:58;6.68;;;2.67;;
16403;SDS011;8311;50.158;8.642;2023-07-31T14:03:51;6.82;;;2.83;;
16403;SDS011;8311;50.158;8.642;2023-07-31T14:06:45;6.30;;;2.92;;
16403;SDS011;8311;50.158;8.642;2023-07-31T14:09:41;4.07;;;2.17;;
16403;SDS011;8311;50.158;8.642;2023-07-31T14:12:36;10.45;;;3.30;;
16403;SDS011;8311;50.158;8.642;2023-07-31T14:15:34;8.05;;;2.55;;
16403;SDS011;8311;50.158;8.642;2023-07-31T14:18:28;6.35;;;2.72;;
16403;SDS011;8311;50.158;8.642;2023-07-31T14:21:22;5.63;;;3.13;;
16403;SDS011;8311;50.158;8.642;2023-07-31T14:24:15;7.97;;;2.83;;
16403;SDS011;8311;50.158;8.642;2023-07-31T14:27:08;5.03;;;2.65;;
16403;SDS011;8311;50.158;8.642;2023-07-31T14:30:02;4.80;;;2.38;;
16403;SDS011;8311;50.158;8.642;2023-07-31T14:32:56;5.35;;;2.88;;
16403;SDS011;8311;50.158;8.642;2023-07-31T14:35:52;4.88;;;2.30;;
16403;SDS011;8311;50.158;8.642;2023-07-31T14:38:46;5.25;;;2.72;;
16403;SDS011;8311;50.158;8.642;2023-07-31T14:41:39;4.85;;;2.90;;
16403;SDS011;8311;50.158;8.642;2023-07-31T14:44:32;5.60;;;2.75;;
16403;SDS011;8311;50.158;8.642;2023-07-31T14:47:26;4.88;;;2.45;;
16403;SDS011;8311;50.158;8.642;2023-07-31T14:50:20;5.38;;;2.60;;
16403;SDS011;8311;50.158;8.642;2023-07-31T14:53:14;6.30;;;2.65;;
16403;SDS011;8311;50.158;8.642;2023-07-31T14:56:08;6.63;;;2.75;;
16403;SDS011;8311;50.158;8.642;2023-07-31T14:59:01;5.45;;;2.38;;
16403;SDS011;8311;50.158;8.642;2023-07-31T15:01:55;5.30;;;2.92;;
16403;SDS011;8311;50.158;8.642;2023-07-31T15:04:50;6.68;;;2.72;;
16403;SDS011;8311;50.158;8.642;2023-07-31T15:07:44;7.00;;;2.97;;
16403;SDS011;8311;50.158;8.642;2023-07-31T15:10:37;4.50;;;2.30;;
16403;SDS011;8311;50.158;8.642;2023-07-31T15:13:30;5.95;;;2.70;;
16403;SDS011;8311;50.158;8.642;2023-07-31T15:16:23;6.20;;;2.42;;
16403;SDS011;8311;50.158;8.642;2023-07-31T15:19:16;4.80;;;2.83;;
16403;SDS011;8311;50.158;8.642;2023-07-31T15:22:10;4.38;;;2.40;;
16403;SDS011;8311;50.158;8.642;2023-07-31T15:25:03;5.53;;;2.70;;
16403;SDS011;8311;50.158;8.642;2023-07-31T15:27:57;4.40;;;2.28;;
16403;SDS011;8311;50.158;8.642;2023-07-31T15:30:51;4.90;;;2.70;;
16403;SDS011;8311;50.158;8.642;2023-07-31T15:33:45;5.75;;;2.55;;
16403;SDS011;8311;50.158;8.642;2023-07-31T15:36:38;7.03;;;2.88;;
16403;SDS011;8311;50.158;8.642;2023-07-31T15:39:33;5.68;;;2.53;;
16403;SDS011;8311;50.158;8.642;2023-07-31T15:42:26;6.05;;;2.97;;
16403;SDS011;8311;50.158;8.642;2023-07-31T15:45:18;3.78;;;2.40;;
16403;SDS011;8311;50.158;8.642;2023-07-31T15:48:13;4.13;;;2.50;;
16403;SDS011;8311;50.158;8.642;2023-07-31T15:51:06;5.18;;;2.25;;
16403;SDS011;8311;50.158;8.642;2023-07-31T15:54:00;4.00;;;2.10;;
16403;SDS011;8311;50.158;8.642;2023-07-31T15:56:54;4.47;;;2.53;;
16403;SDS011;8311;50.158;8.642;2023-07-31T15:59:48;4.43;;;2.40;;
16403;SDS011;8311;50.158;8.642;2023-07-31T16:02:42;3.55;;;2.08;;
16403;SDS011;8311;50.158;8.642;2023-07-31T16:05:36;3.72;;;2.05;;
16403;SDS011;8311;50.158;8.642;2023-07-31T16:08:29;4.20;;;2.30;;
16403;SDS011;8311;50.158;8.642;2023-07-31T16:11:22;4.68;;;2.25;;
16403;SDS011;8311;50.158;8.642;2023-07-31T16:14:16;5.57;;;2.70;;
16403;SDS011;8311;50.158;8.642;2023-07-31T16:17:10;4.60;;;2.40;;
16403;SDS011;8311;50.158;8.642;2023-07-31T16:20:03;4.28;;;2.40;;
16403;SDS011;8311;50.158;8.642;2023-07-31T16:22:58;4.43;;;2.30;;
16403;SDS011;8311;50.158;8.642;2023-07-31T16:25:52;4.38;;;2.58;;
16403;SDS011;8311;50.158;8.642;2023-07-31T16:28:46;3.55;;;2.15;;
16403;SDS011;8311;50.158;8.642;2023-07-31T16:31:40;5.53;;;2.30;;
16403;SDS011;8311;50.158;8.642;2023-07-31T16:34:48;3.95;;;2.35;;
16403;SDS011;8311;50.158;8.642;2023-07-31T16:37:41;3.70;;;1.73;;
16403;SDS011;8311;50.158;8.642;2023-07-31T16:40:35;5.35;;;2.33;;
16403;SDS011;8311;50.158;8.642;2023-07-31T16:43:28;3.08;;;1.63;;
16403;SDS011;8311;50.158;8.642;2023-07-31T16:46:22;3.33;;;2.22;;
16403;SDS011;8311;50.158;8.642;2023-07-31T16:49:17;3.63;;;2.25;;
16403;SDS011;8311;50.158;8.642;2023-07-31T16:52:10;3.97;;;2.13;;
16403;SDS011;8311;50.158;8.642;2023-07-31T16:55:03;3.88;;;2.08;;
16403;SDS011;8311;50.158;8.642;2023-07-31T16:57:56;2.83;;;1.73;;
16403;SDS011;8311;50.158;8.642;2023-07-31T17:00:50;3.92;;;2.10;;
16403;SDS011;8311;50.158;8.642;2023-07-31T17:03:43;3.50;;;2.05;;
16403;SDS011;8311;50.158;8.642;2023-07-31T17:06:38;4.00;;;2.15;;
16403;SDS011;8311;50.158;8.642;2023-07-31T17:09:32;3.63;;;2.10;;
16403;SDS011;8311;50.158;8.642;2023-07-31T17:12:26;3.25;;;1.98;;
16403;SDS011;8311;50.158;8.642;2023-07-31T17:15:19;2.70;;;1.67;;
16403;SDS011;8311;50.158;8.642;2023-07-31T17:18:12;3.33;;;2.08;;
16403;SDS011;8311;50.158;8.642;2023-07-31T17:21:06;4.00;;;2.10;;
16403;SDS011;8311;50.158;8.642;2023-07-31T17:24:00;3.70;;;1.92;;
16403;SDS011;8311;50.158;8.642;2023-07-31T17:26:54;3.00;;;1.80;;
16403;SDS011;8311;50.158;8.642;2023-07-31T17:29:47;3.03;;;1.73;;
16403;SDS011;8311;50.158;8.642;2023-07-31T17:32:41;3.78;;;2.05;;
16403;SDS011;8311;50.158;8.642;2023-07-31T17:35:34;4.15;;;2.10;;
16403;SDS011;8311;50.158;8.642;2023-07-31T17:38:28;2.97;;;1.65;;
16403;SDS011;8311;50.158;8.642;2023-07-31T17:41:22;3.55;;;1.92;;
16403;SDS011;8311;50.158;8.642;2023-07-31T17:44:17;2.88;;;1.90;;
16403;SDS011;8311;50.158;8.642;2023-07-31T17:47:10;3.75;;;2.10;;
16403;SDS011;8311;50.158;8.642;2023-07-31T17:50:04;2.50;;;1.95;;
16403;SDS011;8311;50.158;8.642;2023-07-31T17:52:58;4.50;;;2.47;;